Pagina principale
METAR-TAF:

METAR-TAF

Aeroporti :

Aeroporto di Firenze-Peretola

Firenze, Italia

latitudine: 43-48N, longitudine: 011-12E, altezza: 40 m

Osservazione

Il bollettino è stato emesso 22 minuti fa, alle 12:50 UTC
Vento 3 kt da ovest, variando fra sud-ovest e ovest/nord-ovest
Temperature 24°C
Umidità 61%
Pressione 1020 hPa
Visibilità 10 km o più
Poco nuvoloso ad un'altezza di 4000 ft
Nuvoloso ad un'altezza di 8000 ft

METAR: LIRQ 141250Z 27003KT 230V300 9999 FEW040 BKN080 24/16 Q1020

Ora: 15:12 (13:12 UTC)

Previsione

Il bollettino è stato emesso 2 ore e 12 minuti fa, alle 11:00 UTC
Previsione valida dal 14 alle 12 UTC al 15 alle 12 UTC
Vento 5 kt da direzioni variabili
Visibilità 10 km o più
Nubi sparse ad un'altezza di 3000 ft

TAF: LIRQ 141100Z 1412/1512 VRB05KT 9999 SCT030

Osservazioni e previsioni meteorologiche di più di 4000 aeroporti (messaggi METAR e TAF).

Le stazioni disponibili sono rappresentate dai dischi gialli e rossi sulla carta.

Puntare il mouse per vedere il nome della stazione.

Clicca sopra per visualizzare le osservazioni e previsioni meteorologiche.

Per cambiare la mappa : fare clic sui pulsanti verdi con una croce nera per ingrandire, il pulsante verde con un trattino per diminuire, o sulla freccia verde per le mappe adiacenti.


METAR-TAF: